Time;durP1;ratioP1;P1;durP2;ratioP2;P2;SDS_P1;SDS_P2;PMS_P1;PMS_P2;Temp;Humidity;BMP_temperature;BMP_pressure;BME280_temperature;BME280_humidity;BME280_pressure;Samples;Min_cycle;Max_cycle;Signal;HPM_P1;HPM_P2
2021/01/25 00:01:13;;;;;;;39.08;22.50;;;5.70;97.50;;;;;;5094766;28;20059;-68
2021/01/25 00:03:39;;;;;;;24.88;14.65;;;5.60;97.50;;;;;;5096036;28;20389;-69
2021/01/25 00:06:05;;;;;;;31.02;18.35;;;5.70;98.00;;;;;;5095512;28;20077;-70
2021/01/25 00:08:31;;;;;;;20.52;12.65;;;5.40;97.40;;;;;;5093805;28;20461;-70
2021/01/25 00:10:56;;;;;;;36.63;21.80;;;5.00;97.30;;;;;;5094557;28;20488;-69
2021/01/25 00:13:22;;;;;;;20.08;12.07;;;5.10;97.20;;;;;;5095733;28;20086;-70
2021/01/25 00:15:49;;;;;;;22.65;14.35;;;4.90;97.40;;;;;;5095994;28;20023;-68
2021/01/25 00:18:16;;;;;;;18.35;11.48;;;4.50;97.00;;;;;;5094446;28;20110;-69
2021/01/25 00:20:42;;;;;;;20.17;11.88;;;4.30;97.20;;;;;;5095679;28;20359;-68
2021/01/25 00:23:08;;;;;;;18.17;10.82;;;4.50;97.30;;;;;;5094597;28;20144;-69
2021/01/25 00:25:33;;;;;;;14.30;8.45;;;4.10;97.00;;;;;;5095277;28;20085;-68
2021/01/25 00:27:59;;;;;;;19.23;11.43;;;4.10;97.90;;;;;;5095827;28;20024;-70
2021/01/25 00:30:25;;;;;;;22.77;11.55;;;4.00;97.50;;;;;;5095835;28;20031;-69
2021/01/25 00:32:51;;;;;;;28.02;14.68;;;3.90;97.50;;;;;;5094071;28;20036;-70
2021/01/25 00:35:17;;;;;;;13.25;7.20;;;4.00;98.00;;;;;;5095927;28;20396;-67
2021/01/25 00:37:43;;;;;;;15.07;8.80;;;3.80;98.00;;;;;;5094274;28;20073;-70
2021/01/25 00:40:09;;;;;;;21.58;12.27;;;3.70;97.60;;;;;;5094131;28;20020;-70
2021/01/25 00:42:35;;;;;;;12.68;7.70;;;3.80;98.00;;;;;;5095347;28;20032;-69
2021/01/25 00:45:04;;;;;;;9.57;6.07;;;3.60;97.60;;;;;;5095745;28;20537;-68
2021/01/25 00:47:29;;;;;;;21.77;12.73;;;3.60;97.80;;;;;;5093925;28;20042;-69
2021/01/25 00:49:55;;;;;;;18.85;10.73;;;3.50;98.00;;;;;;5095414;28;20032;-69
2021/01/25 00:52:21;;;;;;;12.60;7.43;;;3.30;98.40;;;;;;5093974;28;20371;-68
2021/01/25 00:54:47;;;;;;;11.85;7.47;;;3.20;98.60;;;;;;5094720;28;20465;-70
2021/01/25 00:57:12;;;;;;;15.00;8.10;;;3.10;98.30;;;;;;5095447;28;20020;-68
2021/01/25 00:59:38;;;;;;;6.68;3.63;;;3.20;98.70;;;;;;5093343;28;20540;-70
2021/01/25 01:02:04;;;;;;;7.25;4.05;;;3.50;98.20;;;;;;5095036;28;20028;-68
2021/01/25 01:04:30;;;;;;;8.18;4.80;;;3.30;98.20;;;;;;5094737;28;20024;-70
2021/01/25 01:06:55;;;;;;;5.78;2.90;;;3.00;98.10;;;;;;5093474;28;20055;-70
2021/01/25 01:09:21;;;;;;;7.38;3.97;;;3.20;98.80;;;;;;5094695;28;20028;-68
2021/01/25 01:11:47;;;;;;;9.82;4.78;;;3.20;98.90;;;;;;5093560;28;20424;-69
2021/01/25 01:14:12;;;;;;;7.97;5.00;;;3.10;98.60;;;;;;5093242;28;20024;-69
2021/01/25 01:16:38;;;;;;;7.45;3.20;;;3.00;98.40;;;;;;5093564;28;20024;-69
2021/01/25 01:19:04;;;;;;;7.63;3.88;;;3.20;98.70;;;;;;5094360;28;20062;-69
2021/01/25 01:21:30;;;;;;;8.05;3.80;;;3.10;98.60;;;;;;5094405;28;20051;-68
2021/01/25 01:23:55;;;;;;;5.22;3.28;;;3.10;98.40;;;;;;5093411;28;20465;-70
2021/01/25 01:26:21;;;;;;;5.88;2.85;;;2.80;98.60;;;;;;5093423;28;20052;-70
2021/01/25 01:28:47;;;;;;;16.20;6.05;;;2.80;99.00;;;;;;5093022;28;20462;-70
2021/01/25 01:31:12;;;;;;;16.63;8.55;;;3.10;98.50;;;;;;5094349;28;20520;-70
2021/01/25 01:33:38;;;;;;;19.33;7.78;;;3.20;98.70;;;;;;5094741;28;20032;-68
2021/01/25 01:36:04;;;;;;;16.55;6.90;;;3.10;98.50;;;;;;5092890;28;20458;-70
2021/01/25 01:38:30;;;;;;;17.95;8.00;;;3.00;98.30;;;;;;5093158;28;20020;-71
2021/01/25 01:40:59;;;;;;;23.02;10.00;;;2.90;98.80;;;;;;5092793;28;20036;-69
2021/01/25 01:43:26;;;;;;;7.68;4.28;;;3.10;99.10;;;;;;5092950;28;20465;-68
2021/01/25 01:45:52;;;;;;;15.20;8.07;;;2.90;98.00;;;;;;5092988;28;20024;-69
2021/01/25 01:48:17;;;;;;;14.25;8.85;;;3.00;98.60;;;;;;5093027;28;20169;-69
2021/01/25 01:50:43;;;;;;;11.68;6.63;;;2.90;98.40;;;;;;5094033;28;20031;-69
2021/01/25 01:53:10;;;;;;;14.65;7.97;;;2.90;98.50;;;;;;5092885;28;20036;-70
2021/01/25 01:55:36;;;;;;;16.08;8.57;;;2.90;98.60;;;;;;5092674;28;20024;-69
2021/01/25 01:58:03;;;;;;;17.63;8.55;;;2.80;98.50;;;;;;5092886;28;20160;-70
2021/01/25 02:00:29;;;;;;;16.33;8.23;;;3.10;99.30;;;;;;5092573;28;20378;-68
2021/01/25 02:02:55;;;;;;;14.45;9.07;;;2.90;98.50;;;;;;5093791;28;20104;-69
2021/01/25 02:05:22;;;;;;;10.70;5.90;;;3.20;98.40;;;;;;5092730;28;20086;-69
2021/01/25 02:07:51;;;;;;;11.35;5.82;;;3.10;98.40;;;;;;5092397;28;20034;-70
2021/01/25 02:10:19;;;;;;;11.10;5.75;;;3.10;98.70;;;;;;5092416;28;20024;-70
2021/01/25 02:12:48;;;;;;;8.07;4.68;;;3.10;98.60;;;;;;5092600;28;20127;-69
2021/01/25 02:15:15;;;;;;;12.60;5.95;;;3.00;98.10;;;;;;5093236;28;20065;-70
2021/01/25 02:17:41;;;;;;;20.10;9.10;;;3.10;98.70;;;;;;5092368;28;20020;-70
2021/01/25 02:20:49;;;;;;;15.18;6.80;;;3.20;98.20;;;;;;5092542;28;20491;-70
2021/01/25 02:23:37;;;;;;;24.30;11.18;;;3.00;98.10;;;;;;5091758;28;20044;-68
2021/01/25 02:26:15;;;;;;;21.35;10.18;;;2.80;98.40;;;;;;5092558;28;20024;-68
2021/01/25 02:28:41;;;;;;;22.70;11.38;;;2.90;98.70;;;;;;5092878;28;20032;-70
2021/01/25 02:31:10;;;;;;;20.55;9.35;;;2.80;98.60;;;;;;5093538;28;20020;-70
2021/01/25 02:33:55;;;;;;;21.95;9.70;;;2.90;99.10;;;;;;5096648;28;20040;-69
2021/01/25 02:36:23;;;;;;;19.77;8.70;;;3.00;99.00;;;;;;5098030;28;20028;-70
2021/01/25 02:38:51;;;;;;;14.60;7.78;;;3.00;98.30;;;;;;5096324;28;20031;-69
2021/01/25 02:41:22;;;;;;;23.45;11.35;;;2.90;98.60;;;;;;5096602;28;20028;-68
2021/01/25 02:43:51;;;;;;;8.98;4.57;;;3.10;98.60;;;;;;5097869;28;20090;-69
2021/01/25 02:46:18;;;;;;;20.23;9.55;;;3.10;98.30;;;;;;5096257;28;20073;-69
2021/01/25 02:48:43;;;;;;;10.02;5.72;;;3.00;98.70;;;;;;5096393;28;20060;-70
2021/01/25 02:51:11;;;;;;;6.38;3.55;;;3.10;98.30;;;;;;5096906;28;20067;-70
2021/01/25 02:53:37;;;;;;;8.45;4.65;;;3.20;97.90;;;;;;5095973;28;20036;-70
2021/01/25 02:56:03;;;;;;;6.22;3.30;;;3.20;97.80;;;;;;5096237;28;20202;-71
2021/01/25 02:58:29;;;;;;;7.28;4.07;;;3.20;98.40;;;;;;5095676;28;20032;-69
2021/01/25 03:00:57;;;;;;;6.50;4.13;;;3.10;98.50;;;;;;5097518;28;20048;-70
2021/01/25 03:03:23;;;;;;;6.82;3.58;;;3.00;97.90;;;;;;5097423;28;20031;-70
2021/01/25 03:05:49;;;;;;;5.57;3.33;;;3.10;98.40;;;;;;5096818;28;20020;-69
2021/01/25 03:08:15;;;;;;;6.03;3.30;;;3.10;98.50;;;;;;5097057;28;20032;-69
2021/01/25 03:10:41;;;;;;;7.05;4.07;;;3.10;98.30;;;;;;5096009;28;20081;-68
2021/01/25 03:13:07;;;;;;;7.80;4.03;;;2.90;98.40;;;;;;5095582;28;20119;-69
2021/01/25 03:15:35;;;;;;;7.78;4.15;;;3.00;98.30;;;;;;5095862;28;20028;-70
2021/01/25 03:18:01;;;;;;;10.48;5.80;;;3.20;98.40;;;;;;5095898;28;20028;-69
2021/01/25 03:20:26;;;;;;;11.48;7.10;;;3.30;98.10;;;;;;5096986;28;20099;-70
2021/01/25 03:22:52;;;;;;;17.77;8.95;;;3.00;98.30;;;;;;5095729;28;20028;-69
2021/01/25 03:25:18;;;;;;;13.50;7.25;;;3.00;98.60;;;;;;5097019;28;20411;-69
2021/01/25 03:27:44;;;;;;;10.02;5.72;;;2.80;98.80;;;;;;5096685;28;20454;-69
2021/01/25 03:30:10;;;;;;;8.60;5.28;;;2.90;99.20;;;;;;5095613;28;20021;-69
2021/01/25 03:32:36;;;;;;;7.28;4.40;;;3.00;99.30;;;;;;5095415;28;20038;-71
2021/01/25 03:35:08;;;;;;;6.03;3.33;;;2.80;98.70;;;;;;5095265;28;20026;-69
2021/01/25 03:37:34;;;;;;;4.82;3.00;;;2.80;99.30;;;;;;5095640;28;20028;-69
2021/01/25 03:40:00;;;;;;;7.13;4.80;;;2.90;99.00;;;;;;5097109;28;20111;-69
2021/01/25 03:42:26;;;;;;;3.80;2.53;;;2.70;99.20;;;;;;5095059;28;20439;-70
2021/01/25 03:44:52;;;;;;;5.32;3.80;;;2.70;99.50;;;;;;5095488;28;20028;-70
2021/01/25 03:47:18;;;;;;;5.70;3.97;;;2.90;99.30;;;;;;5096630;28;20070;-70
2021/01/25 03:49:44;;;;;;;6.60;4.57;;;2.70;99.40;;;;;;5094894;28;20036;-70
2021/01/25 03:52:09;;;;;;;5.05;3.50;;;2.60;99.40;;;;;;5096473;28;20362;-69
2021/01/25 03:54:35;;;;;;;6.03;3.67;;;2.70;99.80;;;;;;5094920;28;20032;-68
2021/01/25 03:57:02;;;;;;;10.65;6.10;;;2.90;99.60;;;;;;5095058;28;20024;-69
2021/01/25 03:59:29;;;;;;;8.20;4.85;;;2.80;99.40;;;;;;5094765;28;20136;-68
2021/01/25 04:01:56;;;;;;;10.10;5.97;;;2.70;99.90;;;;;;5096029;28;20035;-69
2021/01/25 04:04:22;;;;;;;10.45;5.57;;;2.60;99.60;;;;;;5096307;28;20024;-69
2021/01/25 04:06:48;;;;;;;13.68;8.30;;;2.60;99.90;;;;;;5094981;28;20530;-70
2021/01/25 04:09:14;;;;;;;12.43;7.43;;;2.70;99.70;;;;;;5094322;28;20032;-69
2021/01/25 04:11:42;;;;;;;14.25;7.82;;;2.80;99.30;;;;;;5095407;28;20036;-68
2021/01/25 04:14:08;;;;;;;19.67;12.25;;;2.80;99.60;;;;;;5095344;28;20031;-69
2021/01/25 04:16:34;;;;;;;21.48;12.35;;;2.90;99.40;;;;;;5095754;28;20027;-68
2021/01/25 04:19:00;;;;;;;14.32;9.38;;;3.00;99.30;;;;;;5094939;28;20028;-69
2021/01/25 04:21:25;;;;;;;8.52;5.60;;;2.90;99.40;;;;;;5094594;28;20028;-70
2021/01/25 04:23:51;;;;;;;9.18;5.57;;;2.80;99.20;;;;;;5094260;28;20119;-69
2021/01/25 04:26:17;;;;;;;6.82;4.63;;;2.80;99.50;;;;;;5095586;28;20033;-69
2021/01/25 04:28:43;;;;;;;8.35;5.40;;;2.60;99.40;;;;;;5094420;28;20469;-70
2021/01/25 04:31:09;;;;;;;11.23;6.88;;;2.80;99.30;;;;;;5094431;28;20027;-70
2021/01/25 04:33:34;;;;;;;13.80;7.88;;;2.90;99.20;;;;;;5095780;28;20465;-69
2021/01/25 04:36:00;;;;;;;18.52;11.00;;;2.90;99.40;;;;;;5094987;28;20020;-70
2021/01/25 04:38:26;;;;;;;14.27;8.48;;;2.80;99.10;;;;;;5094078;28;20392;-69
2021/01/25 04:40:52;;;;;;;14.57;7.93;;;3.00;99.50;;;;;;5094241;28;20114;-68
2021/01/25 04:43:19;;;;;;;16.40;8.88;;;2.90;98.90;;;;;;5095780;28;20028;-69
2021/01/25 04:45:46;;;;;;;19.25;9.82;;;2.90;99.00;;;;;;5094911;28;20057;-69
2021/01/25 04:48:12;;;;;;;11.20;5.30;;;2.80;98.80;;;;;;5095433;28;20020;-70
2021/01/25 04:50:39;;;;;;;11.23;6.30;;;2.90;98.80;;;;;;5093724;28;20031;-69
2021/01/25 04:53:06;;;;;;;10.13;6.18;;;3.00;98.90;;;;;;5094999;28;20032;-69
2021/01/25 04:55:33;;;;;;;8.20;4.38;;;2.90;98.90;;;;;;5094486;28;20024;-69
2021/01/25 04:58:00;;;;;;;14.68;8.98;;;2.90;98.80;;;;;;5094077;28;20465;-68
2021/01/25 05:00:25;;;;;;;55.78;27.45;;;3.00;98.80;;;;;;5095195;28;20497;-68
2021/01/25 05:02:52;;;;;;;60.88;30.20;;;3.00;98.70;;;;;;5094143;28;20035;-69
2021/01/25 05:05:18;;;;;;;28.13;13.15;;;3.00;98.50;;;;;;5094539;28;20463;-69
2021/01/25 05:07:44;;;;;;;30.50;18.23;;;3.20;98.50;;;;;;5093480;28;20045;-70
2021/01/25 05:10:10;;;;;;;25.85;13.57;;;3.00;98.80;;;;;;5095332;28;20024;-68
2021/01/25 05:12:50;;;;;;;49.28;22.98;;;3.00;98.90;;;;;;5093525;28;20054;-70
2021/01/25 05:15:29;;;;;;;17.48;10.32;;;3.00;99.00;;;;;;5093357;28;20039;-68
2021/01/25 05:17:57;;;;;;;13.18;8.32;;;2.80;98.80;;;;;;5094792;28;20028;-68
2021/01/25 05:20:28;;;;;;;20.83;13.10;;;2.80;99.20;;;;;;5094791;28;20028;-68
2021/01/25 05:23:02;;;;;;;40.05;23.15;;;3.00;99.30;;;;;;5094392;28;20373;-68
2021/01/25 05:25:30;;;;;;;19.83;12.52;;;2.90;98.90;;;;;;5094682;28;20020;-69
2021/01/25 05:27:58;;;;;;;14.75;9.40;;;2.90;98.70;;;;;;5093409;28;20119;-68
2021/01/25 05:30:25;;;;;;;33.00;20.58;;;2.80;99.10;;;;;;5093956;28;20473;-71
2021/01/25 05:32:53;;;;;;;23.45;17.33;;;2.80;98.70;;;;;;5092932;28;20036;-70
2021/01/25 05:35:23;;;;;;;13.60;10.55;;;2.80;99.10;;;;;;5093324;28;20051;-69
2021/01/25 05:38:03;;;;;;;12.52;9.43;;;2.80;99.00;;;;;;5094144;28;20416;-70
2021/01/25 05:40:31;;;;;;;12.52;9.70;;;2.80;99.10;;;;;;5094242;28;20024;-70
2021/01/25 05:42:57;;;;;;;11.77;9.18;;;2.90;98.70;;;;;;5094700;28;20028;-69
2021/01/25 05:45:26;;;;;;;14.00;9.60;;;3.00;98.50;;;;;;5093086;28;20537;-68
2021/01/25 05:47:59;;;;;;;39.33;24.67;;;2.80;98.10;;;;;;5092715;28;20028;-70
2021/01/25 05:50:36;;;;;;;25.83;15.32;;;2.80;98.60;;;;;;5094312;28;20035;-69
2021/01/25 05:53:07;;;;;;;31.23;18.52;;;2.80;98.60;;;;;;5094195;28;20036;-70
2021/01/25 05:55:34;;;;;;;37.30;22.08;;;2.80;98.40;;;;;;5094232;28;20046;-70
2021/01/25 05:58:00;;;;;;;25.52;14.85;;;2.70;98.70;;;;;;5094187;28;20419;-68
2021/01/25 06:00:27;;;;;;;19.05;12.63;;;2.70;98.60;;;;;;5092082;28;20055;-67
2021/01/25 06:02:54;;;;;;;27.35;22.85;;;2.70;98.70;;;;;;5093153;28;20056;-70
2021/01/25 06:05:40;;;;;;;14.73;10.48;;;2.80;98.70;;;;;;5092619;28;20060;-69
2021/01/25 06:08:32;;;;;;;95.68;86.28;;;2.70;98.40;;;;;;5092277;28;20119;-68
2021/01/25 06:11:16;;;;;;;64.80;56.88;;;2.80;98.50;;;;;;5093318;28;20028;-68
2021/01/25 06:13:50;;;;;;;41.15;21.15;;;2.90;98.40;;;;;;5092819;28;20036;-68
2021/01/25 06:16:17;;;;;;;32.50;19.42;;;2.90;98.00;;;;;;5093446;28;20466;-70
2021/01/25 06:18:45;;;;;;;56.47;22.15;;;2.80;98.10;;;;;;5092581;28;20115;-70
2021/01/25 06:21:15;;;;;;;117.70;37.38;;;2.90;98.10;;;;;;5092610;28;20024;-69
2021/01/25 06:23:42;;;;;;;44.72;23.92;;;2.90;98.10;;;;;;5093559;28;20032;-70
2021/01/25 06:26:07;;;;;;;37.80;21.17;;;2.90;98.00;;;;;;5092219;28;20031;-69
2021/01/25 06:28:34;;;;;;;57.38;22.90;;;2.80;97.70;;;;;;5091103;28;20024;-68
2021/01/25 06:31:00;;;;;;;29.00;14.65;;;2.90;97.60;;;;;;5091868;28;20032;-69
2021/01/25 06:33:26;;;;;;;27.55;18.13;;;2.90;97.40;;;;;;5092112;28;20040;-69
2021/01/25 06:35:52;;;;;;;72.05;37.63;;;2.90;97.60;;;;;;5091079;28;20381;-69
2021/01/25 06:38:21;;;;;;;107.07;50.28;;;2.90;97.30;;;;;;5092152;28;20028;-70
2021/01/25 06:40:49;;;;;;;24.60;16.30;;;3.00;97.20;;;;;;5093564;28;20035;-68
2021/01/25 06:43:17;;;;;;;257.77;73.15;;;2.80;97.00;;;;;;5092073;28;20028;-69
2021/01/25 06:45:44;;;;;;;133.13;44.05;;;2.90;97.30;;;;;;5092340;28;20024;-70
2021/01/25 06:48:16;;;;;;;81.28;28.30;;;3.00;97.00;;;;;;5092633;28;20444;-69
2021/01/25 06:50:48;;;;;;;94.90;35.88;;;2.90;96.90;;;;;;5092612;28;20474;-71
2021/01/25 06:53:14;;;;;;;71.38;27.33;;;3.00;96.90;;;;;;5093537;28;20127;-69
2021/01/25 06:55:42;;;;;;;132.35;47.88;;;2.90;96.30;;;;;;5091855;28;20111;-69
2021/01/25 06:58:12;;;;;;;81.45;32.78;;;2.90;96.50;;;;;;5093161;28;20024;-68
2021/01/25 07:00:41;;;;;;;89.15;35.95;;;2.90;96.60;;;;;;5091968;28;20044;-69
2021/01/25 07:03:08;;;;;;;39.15;19.90;;;2.90;96.40;;;;;;5093132;28;20051;-68
2021/01/25 07:05:36;;;;;;;65.28;34.22;;;2.80;96.20;;;;;;5093180;28;20031;-70
2021/01/25 07:08:25;;;;;;;27.67;14.95;;;2.80;96.20;;;;;;5093439;28;20024;-70
2021/01/25 07:11:02;;;;;;;39.88;24.13;;;2.80;95.80;;;;;;5091600;28;20034;-69
2021/01/25 07:13:35;;;;;;;41.70;25.92;;;2.80;96.00;;;;;;5093437;28;20044;-68
2021/01/25 07:16:03;;;;;;;29.50;18.63;;;2.90;96.00;;;;;;5093704;28;20156;-68
2021/01/25 07:18:30;;;;;;;14.90;10.10;;;2.90;95.80;;;;;;5093980;28;20461;-68
2021/01/25 07:20:58;;;;;;;13.63;9.52;;;3.00;95.40;;;;;;5097142;28;20024;-70
2021/01/25 07:23:25;;;;;;;19.25;13.40;;;3.10;95.10;;;;;;5095843;28;20032;-67
2021/01/25 07:25:59;;;;;;;39.58;25.63;;;3.10;95.10;;;;;;5096889;28;20028;-68
2021/01/25 07:28:28;;;;;;;28.60;17.88;;;3.20;95.40;;;;;;5095717;28;20024;-67
2021/01/25 07:30:54;;;;;;;37.92;21.92;;;3.20;94.80;;;;;;5097253;28;20025;-69
2021/01/25 07:33:21;;;;;;;28.63;17.63;;;3.30;94.90;;;;;;5096671;28;20032;-69
2021/01/25 07:35:47;;;;;;;95.20;58.03;;;3.40;94.50;;;;;;5095564;28;20021;-69
2021/01/25 07:38:14;;;;;;;109.68;58.97;;;3.50;94.50;;;;;;5095534;28;20020;-68
2021/01/25 07:40:42;;;;;;;121.32;62.35;;;3.50;94.50;;;;;;5096199;28;20020;-68
2021/01/25 07:43:07;;;;;;;102.10;53.72;;;3.60;94.20;;;;;;5096485;28;20385;-68
2021/01/25 07:45:34;;;;;;;77.25;43.72;;;3.60;94.00;;;;;;5095088;28;20021;-69
2021/01/25 07:48:00;;;;;;;38.83;25.33;;;3.70;94.30;;;;;;5096677;28;20020;-69
2021/01/25 07:50:26;;;;;;;26.40;15.80;;;3.80;93.90;;;;;;5095847;28;20032;-69
2021/01/25 07:53:03;;;;;;;40.92;25.52;;;3.80;94.00;;;;;;5095354;28;20032;-69
2021/01/25 07:55:29;;;;;;;63.95;39.05;;;3.90;93.60;;;;;;5096240;28;20027;-69
2021/01/25 07:58:06;;;;;;;25.48;17.63;;;4.00;93.70;;;;;;5096188;28;20023;-68
2021/01/25 08:00:32;;;;;;;42.90;28.25;;;4.10;93.10;;;;;;5096222;28;20044;-69
2021/01/25 08:03:12;;;;;;;37.03;22.27;;;4.20;92.80;;;;;;5096021;28;20028;-68
2021/01/25 08:05:40;;;;;;;25.17;16.45;;;4.40;92.30;;;;;;5096036;28;20054;-68
2021/01/25 08:08:09;;;;;;;21.30;13.60;;;4.70;92.90;;;;;;5094977;28;20051;-71
2021/01/25 08:10:35;;;;;;;17.27;12.93;;;4.70;91.20;;;;;;5095070;28;20082;-69
2021/01/25 08:13:14;;;;;;;15.38;10.68;;;4.80;91.30;;;;;;5095995;28;20531;-69
2021/01/25 08:16:03;;;;;;;20.17;14.48;;;4.90;91.00;;;;;;5096441;28;20066;-69
2021/01/25 08:18:35;;;;;;;20.15;10.88;;;4.80;90.30;;;;;;5076778;28;20032;-69
2021/01/25 08:21:02;;;;;;;53.72;28.23;;;4.90;91.90;;;;;;5094736;28;20035;-70
2021/01/25 08:23:32;;;;;;;60.63;35.42;;;4.90;90.50;;;;;;5094625;28;20035;-68
2021/01/25 08:26:01;;;;;;;67.90;35.70;;;5.00;90.50;;;;;;5095388;28;20032;-69
2021/01/25 08:28:34;;;;;;;40.15;23.38;;;5.00;90.00;;;;;;5094667;28;20119;-70
2021/01/25 08:31:32;;;;;;;19.90;12.82;;;5.20;89.80;;;;;;5094639;28;20025;-69
2021/01/25 08:34:15;;;;;;;35.83;21.42;;;5.30;90.20;;;;;;5095222;28;20051;-69
2021/01/25 08:36:40;;;;;;;26.25;18.00;;;5.50;89.20;;;;;;5095300;28;20028;-69
2021/01/25 08:39:13;;;;;;;21.15;13.70;;;5.60;87.20;;;;;;5095505;28;20077;-69
2021/01/25 08:41:47;;;;;;;21.42;13.55;;;5.80;85.70;;;;;;5095895;28;20043;-68
2021/01/25 08:44:20;;;;;;;16.08;10.38;;;6.00;88.40;;;;;;5095635;28;20055;-69
2021/01/25 08:46:46;;;;;;;18.48;11.10;;;6.10;84.00;;;;;;5093436;28;20040;-69
2021/01/25 08:49:17;;;;;;;12.50;7.22;;;6.20;83.70;;;;;;5095334;28;20020;-68
2021/01/25 08:51:58;;;;;;;16.40;9.77;;;6.30;83.00;;;;;;5094072;28;20028;-68
2021/01/25 08:54:28;;;;;;;16.77;11.98;;;6.40;81.90;;;;;;5095390;28;20024;-68
2021/01/25 08:56:54;;;;;;;15.05;8.75;;;6.30;81.00;;;;;;5094075;28;20028;-67
2021/01/25 08:59:35;;;;;;;22.55;12.30;;;6.40;80.70;;;;;;5094533;28;20121;-68
2021/01/25 09:02:17;;;;;;;24.88;15.15;;;6.70;82.60;;;;;;5095279;28;20036;-68
2021/01/25 09:04:43;;;;;;;84.05;49.58;;;7.10;79.50;;;;;;5093746;28;20469;-69
2021/01/25 09:07:13;;;;;;;340.42;208.23;;;6.90;74.60;;;;;;5094659;28;20024;-66
2021/01/25 09:09:39;;;;;;;40.10;23.08;;;6.90;76.10;;;;;;5093746;28;20427;-68
2021/01/25 09:12:06;;;;;;;62.05;29.52;;;6.60;74.30;;;;;;5094652;28;20118;-69
2021/01/25 09:14:32;;;;;;;55.80;21.13;;;6.50;76.70;;;;;;5093408;28;20381;-68
2021/01/25 09:16:58;;;;;;;61.85;25.00;;;6.80;76.50;;;;;;5094914;28;20055;-65
2021/01/25 09:19:24;;;;;;;43.28;16.30;;;6.90;77.30;;;;;;5094734;28;20434;-66
2021/01/25 09:21:49;;;;;;;50.72;16.27;;;6.90;71.40;;;;;;5093147;28;20128;-68
2021/01/25 09:24:15;;;;;;;26.95;10.73;;;6.90;70.40;;;;;;5095361;28;20028;-68
2021/01/25 09:26:41;;;;;;;35.50;13.05;;;7.00;72.30;;;;;;5094763;28;20085;-67
2021/01/25 09:29:07;;;;;;;98.93;35.88;;;7.20;72.20;;;;;;5093122;28;20455;-68
2021/01/25 09:31:33;;;;;;;24.58;14.05;;;7.20;70.00;;;;;;5094947;28;20020;-67
2021/01/25 09:33:59;;;;;;;78.15;34.28;;;7.30;69.30;;;;;;5094849;28;20109;-69
2021/01/25 09:36:25;;;;;;;61.55;30.30;;;7.80;73.80;;;;;;5093629;28;20067;-68
2021/01/25 09:38:50;;;;;;;87.53;39.92;;;7.60;68.30;;;;;;5092016;28;20017;-68
2021/01/25 09:41:17;;;;;;;73.55;31.20;;;7.90;71.40;;;;;;5093101;28;20446;-68
2021/01/25 09:43:43;;;;;;;85.82;32.70;;;8.20;70.10;;;;;;5094350;28;20050;-68
2021/01/25 09:46:09;;;;;;;74.35;30.17;;;8.40;70.50;;;;;;5094278;28;20520;-67
2021/01/25 09:48:35;;;;;;;47.67;18.85;;;8.50;67.70;;;;;;5094225;28;20115;-67
2021/01/25 09:51:01;;;;;;;52.13;21.38;;;8.50;65.40;;;;;;5094578;28;20060;-69
2021/01/25 09:53:27;;;;;;;49.58;18.38;;;8.50;64.40;;;;;;5093930;28;20477;-67
2021/01/25 09:55:55;;;;;;;17.15;9.77;;;8.50;63.50;;;;;;5094293;28;20020;-67
2021/01/25 09:58:22;;;;;;;33.58;17.50;;;8.40;62.60;;;;;;5094069;28;20081;-68
2021/01/25 10:00:49;;;;;;;22.05;12.93;;;8.60;68.50;;;;;;5094289;28;20078;-68
2021/01/25 10:03:14;;;;;;;24.27;16.08;;;8.90;64.00;;;;;;5092447;28;20024;-69
2021/01/25 10:05:40;;;;;;;37.47;13.95;;;9.50;68.10;;;;;;5092749;28;20035;-67
2021/01/25 10:08:06;;;;;;;27.42;11.85;;;9.60;64.10;;;;;;5093970;28;20032;-68
2021/01/25 10:10:31;;;;;;;7.95;4.35;;;9.90;63.40;;;;;;5092470;28;20071;-70
2021/01/25 10:12:57;;;;;;;24.00;10.02;;;9.40;58.00;;;;;;5093077;28;20033;-69
2021/01/25 10:15:23;;;;;;;24.48;10.95;;;9.80;61.50;;;;;;5093943;28;20032;-68
2021/01/25 10:17:49;;;;;;;11.00;5.60;;;10.20;61.10;;;;;;5092317;28;20385;-68
2021/01/25 10:20:15;;;;;;;10.52;5.28;;;10.70;63.00;;;;;;5092504;28;20023;-68
2021/01/25 10:22:41;;;;;;;26.30;16.63;;;10.30;53.60;;;;;;5092478;28;20031;-67
2021/01/25 10:25:09;;;;;;;30.85;15.52;;;9.90;54.70;;;;;;5093266;28;20024;-68
2021/01/25 10:27:36;;;;;;;27.25;16.83;;;9.90;55.30;;;;;;5092390;28;20492;-68
2021/01/25 10:30:03;;;;;;;8.25;5.13;;;9.80;52.70;;;;;;5092081;28;20028;-67
2021/01/25 10:32:29;;;;;;;9.95;4.97;;;10.10;55.70;;;;;;5092208;28;20073;-69
2021/01/25 10:34:55;;;;;;;11.57;6.03;;;9.90;57.10;;;;;;5092366;28;20020;-69
2021/01/25 10:37:20;;;;;;;6.35;3.80;;;10.00;57.10;;;;;;5093345;28;20454;-68
2021/01/25 10:39:47;;;;;;;12.43;9.30;;;10.30;57.10;;;;;;5093310;28;20031;-69
2021/01/25 10:42:12;;;;;;;15.45;6.63;;;9.50;58.20;;;;;;5093914;28;20111;-72
2021/01/25 10:44:38;;;;;;;7.82;7.03;;;9.10;58.80;;;;;;5093588;28;20095;-72
2021/01/25 10:47:04;;;;;;;6.22;4.30;;;8.60;57.70;;;;;;5093540;28;20024;-70
2021/01/25 10:49:30;;;;;;;13.90;8.43;;;8.70;58.00;;;;;;5093248;28;20518;-74
2021/01/25 10:51:56;;;;;;;54.25;35.13;;;9.10;60.20;;;;;;5091807;28;20054;-70
2021/01/25 10:54:23;;;;;;;22.13;17.15;;;9.10;56.10;;;;;;5096105;28;20028;-69
2021/01/25 10:56:49;;;;;;;8.43;5.35;;;9.40;57.50;;;;;;5097611;28;20032;-69
2021/01/25 10:59:16;;;;;;;10.77;5.95;;;9.30;56.70;;;;;;5097082;28;20040;-68
2021/01/25 11:01:41;;;;;;;9.27;5.47;;;9.20;55.80;;;;;;5096435;28;20052;-67
2021/01/25 11:04:07;;;;;;;11.50;7.18;;;9.20;58.20;;;;;;5094731;28;20064;-70
2021/01/25 11:06:33;;;;;;;31.95;19.20;;;8.70;55.80;;;;;;5095830;28;20026;-71
2021/01/25 11:08:59;;;;;;;28.05;15.65;;;8.90;57.90;;;;;;5094562;28;20016;-69
2021/01/25 11:11:24;;;;;;;24.58;15.15;;;9.00;55.40;;;;;;5096041;28;20095;-71
2021/01/25 11:13:50;;;;;;;32.35;16.13;;;9.00;56.10;;;;;;5095504;28;20492;-70
2021/01/25 11:16:16;;;;;;;27.75;16.48;;;9.10;56.50;;;;;;5095622;28;20028;-68
2021/01/25 11:18:41;;;;;;;7.80;5.00;;;9.20;55.60;;;;;;5095818;28;20156;-70
2021/01/25 11:21:07;;;;;;;42.78;20.33;;;8.90;54.00;;;;;;5094145;28;20070;-69
2021/01/25 11:23:33;;;;;;;12.60;6.35;;;8.90;56.20;;;;;;5096025;28;20078;-70
2021/01/25 11:25:59;;;;;;;12.73;7.38;;;8.90;55.70;;;;;;5093938;28;20074;-69
2021/01/25 11:28:25;;;;;;;8.18;4.43;;;8.70;55.90;;;;;;5094450;28;20073;-70
2021/01/25 11:30:51;;;;;;;100.18;59.55;;;8.80;55.20;;;;;;5094276;28;20466;-69
2021/01/25 11:33:17;;;;;;;143.23;91.82;;;8.80;55.50;;;;;;5094871;28;20036;-69
2021/01/25 11:35:43;;;;;;;100.93;46.00;;;8.90;54.30;;;;;;5094156;28;20066;-68
2021/01/25 11:38:09;;;;;;;36.10;18.13;;;9.20;54.10;;;;;;5095378;28;20549;-67
2021/01/25 11:40:34;;;;;;;8.88;4.75;;;9.50;56.20;;;;;;5095120;28;20094;-69
2021/01/25 11:43:00;;;;;;;10.43;4.97;;;9.60;52.60;;;;;;5095210;28;20062;-70
2021/01/25 11:45:26;;;;;;;38.45;20.15;;;9.70;54.80;;;;;;5094009;28;20032;-69
2021/01/25 11:47:51;;;;;;;8.32;4.40;;;9.50;53.70;;;;;;5093689;28;20028;-69
2021/01/25 11:50:17;;;;;;;9.00;6.57;;;9.40;53.50;;;;;;5093591;28;20016;-70
2021/01/25 11:52:43;;;;;;;33.40;26.02;;;9.10;52.90;;;;;;5092368;28;20024;-70
2021/01/25 11:55:09;;;;;;;85.88;52.70;;;9.20;52.40;;;;;;5095026;28;20404;-70
2021/01/25 11:57:35;;;;;;;136.52;61.13;;;9.10;57.00;;;;;;5095118;28;20024;-69
2021/01/25 12:00:01;;;;;;;77.15;32.90;;;9.20;55.80;;;;;;5093891;28;20047;-71
2021/01/25 12:02:26;;;;;;;51.55;28.35;;;9.30;55.90;;;;;;5094724;28;20032;-70
2021/01/25 12:04:52;;;;;;;67.28;21.33;;;9.40;52.90;;;;;;5094614;28;20435;-68
2021/01/25 12:07:22;;;;;;;47.08;16.10;;;9.10;53.50;;;;;;5096246;28;20028;-69
2021/01/25 12:09:47;;;;;;;299.67;73.63;;;9.00;54.30;;;;;;5095602;28;20366;-68
2021/01/25 12:12:13;;;;;;;25.23;7.45;;;8.90;53.60;;;;;;5094815;28;20028;-70
2021/01/25 12:14:39;;;;;;;44.78;13.38;;;9.00;56.10;;;;;;5094833;28;20052;-69
2021/01/25 12:17:05;;;;;;;128.15;40.70;;;8.90;55.90;;;;;;5095797;28;20031;-69
2021/01/25 12:19:31;;;;;;;36.65;20.38;;;8.90;56.20;;;;;;5096172;28;20032;-69
2021/01/25 12:21:56;;;;;;;33.67;16.63;;;8.60;53.40;;;;;;5094392;28;20024;-70
2021/01/25 12:24:22;;;;;;;35.17;18.02;;;8.70;56.10;;;;;;5095952;28;20020;-70
2021/01/25 12:26:50;;;;;;;105.10;50.65;;;8.70;57.90;;;;;;5095860;28;20016;-70
2021/01/25 12:29:17;;;;;;;56.33;28.95;;;8.60;55.60;;;;;;5095439;28;20469;-70
2021/01/25 12:31:42;;;;;;;37.20;17.10;;;8.60;58.60;;;;;;5095673;28;20107;-69
2021/01/25 12:34:08;;;;;;;58.42;26.85;;;8.60;58.10;;;;;;5094300;28;20126;-70
2021/01/25 12:36:34;;;;;;;42.33;26.27;;;8.60;59.80;;;;;;5094087;28;20077;-70
2021/01/25 12:39:00;;;;;;;35.05;23.38;;;8.30;54.80;;;;;;5094340;28;20486;-69
2021/01/25 12:41:26;;;;;;;31.35;21.80;;;8.30;56.80;;;;;;5093944;28;20028;-70
2021/01/25 12:43:52;;;;;;;27.83;17.08;;;8.20;57.10;;;;;;5093711;28;20032;-70
2021/01/25 12:46:19;;;;;;;40.00;23.85;;;8.20;54.90;;;;;;5093816;28;20028;-70